sensor_id;sensor_type;location;lat;lon;timestamp;temperature;humidity
12438;DHT22;6283;51.330;12.374;2024-02-04T00:00:43;9.20;99.90
12438;DHT22;6283;51.330;12.374;2024-02-04T00:03:08;9.40;99.90
12438;DHT22;6283;51.330;12.374;2024-02-04T00:05:34;9.10;99.90
12438;DHT22;6283;51.330;12.374;2024-02-04T00:08:00;9.10;99.90
12438;DHT22;6283;51.330;12.374;2024-02-04T00:10:25;9.20;99.90
12438;DHT22;6283;51.330;12.374;2024-02-04T00:12:52;9.20;99.90
12438;DHT22;6283;51.330;12.374;2024-02-04T00:15:17;9.10;99.90
12438;DHT22;6283;51.330;12.374;2024-02-04T00:17:44;9.10;99.90
12438;DHT22;6283;51.330;12.374;2024-02-04T00:20:10;9.40;99.90
12438;DHT22;6283;51.330;12.374;2024-02-04T00:22:36;9.30;99.90
12438;DHT22;6283;51.330;12.374;2024-02-04T00:25:01;9.30;99.90
12438;DHT22;6283;51.330;12.374;2024-02-04T00:27:33;9.30;99.90
12438;DHT22;6283;51.330;12.374;2024-02-04T00:29:59;9.30;99.90
12438;DHT22;6283;51.330;12.374;2024-02-04T00:32:26;9.20;99.90
12438;DHT22;6283;51.330;12.374;2024-02-04T00:34:52;9.20;99.90
12438;DHT22;6283;51.330;12.374;2024-02-04T00:37:18;9.10;99.90
12438;DHT22;6283;51.330;12.374;2024-02-04T00:39:44;9.00;99.90
12438;DHT22;6283;51.330;12.374;2024-02-04T00:42:09;9.00;99.90
12438;DHT22;6283;51.330;12.374;2024-02-04T00:44:36;8.90;99.90
12438;DHT22;6283;51.330;12.374;2024-02-04T00:47:02;9.00;99.90
12438;DHT22;6283;51.330;12.374;2024-02-04T00:49:27;9.10;99.90
12438;DHT22;6283;51.330;12.374;2024-02-04T00:51:53;8.70;99.90
12438;DHT22;6283;51.330;12.374;2024-02-04T00:54:19;9.10;99.90
12438;DHT22;6283;51.330;12.374;2024-02-04T00:56:45;8.90;99.90
12438;DHT22;6283;51.330;12.374;2024-02-04T00:59:10;8.90;99.90
12438;DHT22;6283;51.330;12.374;2024-02-04T01:01:37;8.90;99.90
12438;DHT22;6283;51.330;12.374;2024-02-04T01:04:03;8.80;99.90
12438;DHT22;6283;51.330;12.374;2024-02-04T01:06:28;8.80;99.90
12438;DHT22;6283;51.330;12.374;2024-02-04T01:08:56;9.00;99.90
12438;DHT22;6283;51.330;12.374;2024-02-04T01:11:22;8.90;99.90
12438;DHT22;6283;51.330;12.374;2024-02-04T01:13:47;8.70;99.90
12438;DHT22;6283;51.330;12.374;2024-02-04T01:16:13;8.90;99.90
12438;DHT22;6283;51.330;12.374;2024-02-04T01:18:39;8.80;99.90
12438;DHT22;6283;51.330;12.374;2024-02-04T01:21:05;9.00;99.90
12438;DHT22;6283;51.330;12.374;2024-02-04T01:23:30;8.90;99.90
12438;DHT22;6283;51.330;12.374;2024-02-04T01:25:56;9.00;99.90
12438;DHT22;6283;51.330;12.374;2024-02-04T01:28:21;8.90;99.90
12438;DHT22;6283;51.330;12.374;2024-02-04T01:30:47;8.80;99.90
12438;DHT22;6283;51.330;12.374;2024-02-04T01:33:13;8.70;99.90
12438;DHT22;6283;51.330;12.374;2024-02-04T01:35:38;8.70;99.90
12438;DHT22;6283;51.330;12.374;2024-02-04T01:38:04;8.90;99.90
12438;DHT22;6283;51.330;12.374;2024-02-04T01:40:30;8.90;99.90
12438;DHT22;6283;51.330;12.374;2024-02-04T01:42:56;9.10;99.90
12438;DHT22;6283;51.330;12.374;2024-02-04T01:45:21;9.00;99.90
12438;DHT22;6283;51.330;12.374;2024-02-04T01:47:48;8.70;99.90
12438;DHT22;6283;51.330;12.374;2024-02-04T01:50:14;8.90;99.90
12438;DHT22;6283;51.330;12.374;2024-02-04T01:52:42;8.80;99.90
12438;DHT22;6283;51.330;12.374;2024-02-04T01:55:09;9.00;99.90
12438;DHT22;6283;51.330;12.374;2024-02-04T01:57:36;8.80;99.90
12438;DHT22;6283;51.330;12.374;2024-02-04T02:00:02;8.90;99.90
12438;DHT22;6283;51.330;12.374;2024-02-04T02:02:29;9.00;99.90
12438;DHT22;6283;51.330;12.374;2024-02-04T02:04:56;9.00;99.90
12438;DHT22;6283;51.330;12.374;2024-02-04T02:07:23;8.90;99.90
12438;DHT22;6283;51.330;12.374;2024-02-04T02:09:52;8.80;99.90
12438;DHT22;6283;51.330;12.374;2024-02-04T02:12:23;8.90;99.90
12438;DHT22;6283;51.330;12.374;2024-02-04T02:14:57;8.90;99.90
12438;DHT22;6283;51.330;12.374;2024-02-04T02:17:31;9.00;99.90
12438;DHT22;6283;51.330;12.374;2024-02-04T02:22:29;8.90;99.90
12438;DHT22;6283;51.330;12.374;2024-02-04T02:24:58;8.70;99.90
12438;DHT22;6283;51.330;12.374;2024-02-04T02:27:27;8.80;99.90
12438;DHT22;6283;51.330;12.374;2024-02-04T02:29:52;8.60;99.90
12438;DHT22;6283;51.330;12.374;2024-02-04T02:32:18;9.00;99.90
12438;DHT22;6283;51.330;12.374;2024-02-04T02:34:44;8.70;99.90
12438;DHT22;6283;51.330;12.374;2024-02-04T02:37:26;8.70;99.90
12438;DHT22;6283;51.330;12.374;2024-02-04T02:40:05;8.60;99.90
12438;DHT22;6283;51.330;12.374;2024-02-04T02:42:34;8.60;99.90
12438;DHT22;6283;51.330;12.374;2024-02-04T02:45:02;8.70;99.90
12438;DHT22;6283;51.330;12.374;2024-02-04T02:47:29;8.60;99.90
12438;DHT22;6283;51.330;12.374;2024-02-04T02:49:54;8.80;99.90
12438;DHT22;6283;51.330;12.374;2024-02-04T02:52:23;8.60;99.90
12438;DHT22;6283;51.330;12.374;2024-02-04T02:54:49;8.60;99.90
12438;DHT22;6283;51.330;12.374;2024-02-04T02:57:14;8.50;99.90
12438;DHT22;6283;51.330;12.374;2024-02-04T02:59:40;8.50;99.90
12438;DHT22;6283;51.330;12.374;2024-02-04T03:02:05;8.70;99.90
12438;DHT22;6283;51.330;12.374;2024-02-04T03:04:31;8.60;99.90
12438;DHT22;6283;51.330;12.374;2024-02-04T03:06:57;8.60;99.90
12438;DHT22;6283;51.330;12.374;2024-02-04T03:09:22;8.60;99.90
12438;DHT22;6283;51.330;12.374;2024-02-04T03:11:48;8.70;99.90
12438;DHT22;6283;51.330;12.374;2024-02-04T03:14:17;8.60;99.90
12438;DHT22;6283;51.330;12.374;2024-02-04T03:16:44;8.70;99.90
12438;DHT22;6283;51.330;12.374;2024-02-04T03:19:10;8.60;99.90
12438;DHT22;6283;51.330;12.374;2024-02-04T03:21:36;8.70;99.90
12438;DHT22;6283;51.330;12.374;2024-02-04T03:24:01;8.40;99.90
12438;DHT22;6283;51.330;12.374;2024-02-04T03:26:27;8.60;99.90
12438;DHT22;6283;51.330;12.374;2024-02-04T03:28:53;8.70;99.90
12438;DHT22;6283;51.330;12.374;2024-02-04T03:31:24;8.60;99.90
12438;DHT22;6283;51.330;12.374;2024-02-04T03:33:50;8.60;99.90
12438;DHT22;6283;51.330;12.374;2024-02-04T03:36:19;8.60;99.90
12438;DHT22;6283;51.330;12.374;2024-02-04T03:38:45;8.70;99.90
12438;DHT22;6283;51.330;12.374;2024-02-04T03:41:11;8.70;99.90
12438;DHT22;6283;51.330;12.374;2024-02-04T03:43:36;8.70;99.90
12438;DHT22;6283;51.330;12.374;2024-02-04T03:46:02;8.70;99.90
12438;DHT22;6283;51.330;12.374;2024-02-04T03:48:28;8.70;99.90
12438;DHT22;6283;51.330;12.374;2024-02-04T03:50:54;8.70;99.90
12438;DHT22;6283;51.330;12.374;2024-02-04T03:53:19;8.80;99.90
12438;DHT22;6283;51.330;12.374;2024-02-04T03:55:46;8.90;99.90
12438;DHT22;6283;51.330;12.374;2024-02-04T03:58:12;8.70;99.90
12438;DHT22;6283;51.330;12.374;2024-02-04T04:00:37;8.70;99.90
12438;DHT22;6283;51.330;12.374;2024-02-04T04:03:03;9.00;99.90
12438;DHT22;6283;51.330;12.374;2024-02-04T04:05:29;9.00;99.90
12438;DHT22;6283;51.330;12.374;2024-02-04T04:07:55;8.70;99.90
12438;DHT22;6283;51.330;12.374;2024-02-04T04:10:20;9.00;99.90
12438;DHT22;6283;51.330;12.374;2024-02-04T04:12:46;8.80;99.90
12438;DHT22;6283;51.330;12.374;2024-02-04T04:15:12;8.90;99.90
12438;DHT22;6283;51.330;12.374;2024-02-04T04:17:37;9.00;99.90
12438;DHT22;6283;51.330;12.374;2024-02-04T04:20:05;9.00;99.90
12438;DHT22;6283;51.330;12.374;2024-02-04T04:22:31;8.90;99.90
12438;DHT22;6283;51.330;12.374;2024-02-04T04:24:57;9.00;99.90
12438;DHT22;6283;51.330;12.374;2024-02-04T04:27:22;9.00;99.90
12438;DHT22;6283;51.330;12.374;2024-02-04T04:29:48;8.90;99.90
12438;DHT22;6283;51.330;12.374;2024-02-04T04:32:13;9.00;99.90
12438;DHT22;6283;51.330;12.374;2024-02-04T04:34:39;8.70;99.90
12438;DHT22;6283;51.330;12.374;2024-02-04T04:37:04;9.10;99.90
12438;DHT22;6283;51.330;12.374;2024-02-04T04:39:30;8.90;99.90
12438;DHT22;6283;51.330;12.374;2024-02-04T04:41:56;8.60;99.90
12438;DHT22;6283;51.330;12.374;2024-02-04T04:44:22;8.60;99.90
12438;DHT22;6283;51.330;12.374;2024-02-04T04:46:48;8.90;99.90
12438;DHT22;6283;51.330;12.374;2024-02-04T04:49:14;8.60;99.90
12438;DHT22;6283;51.330;12.374;2024-02-04T04:51:43;8.90;99.90
12438;DHT22;6283;51.330;12.374;2024-02-04T04:54:09;8.70;99.90
12438;DHT22;6283;51.330;12.374;2024-02-04T04:56:38;8.70;99.90
12438;DHT22;6283;51.330;12.374;2024-02-04T04:59:06;8.60;99.90
12438;DHT22;6283;51.330;12.374;2024-02-04T05:01:31;8.70;99.90
12438;DHT22;6283;51.330;12.374;2024-02-04T05:03:57;8.80;99.90
12438;DHT22;6283;51.330;12.374;2024-02-04T05:06:22;9.00;99.90
12438;DHT22;6283;51.330;12.374;2024-02-04T05:08:48;8.80;99.90
12438;DHT22;6283;51.330;12.374;2024-02-04T05:11:14;8.90;99.90
12438;DHT22;6283;51.330;12.374;2024-02-04T05:13:39;8.80;99.90
12438;DHT22;6283;51.330;12.374;2024-02-04T05:16:05;8.90;99.90
12438;DHT22;6283;51.330;12.374;2024-02-04T05:18:31;8.80;99.90
12438;DHT22;6283;51.330;12.374;2024-02-04T05:20:56;9.00;99.90
12438;DHT22;6283;51.330;12.374;2024-02-04T05:23:22;8.70;99.90
12438;DHT22;6283;51.330;12.374;2024-02-04T05:25:48;8.50;99.90
12438;DHT22;6283;51.330;12.374;2024-02-04T05:28:13;8.70;99.90
12438;DHT22;6283;51.330;12.374;2024-02-04T05:30:39;8.50;99.90
12438;DHT22;6283;51.330;12.374;2024-02-04T05:33:04;8.60;99.90
12438;DHT22;6283;51.330;12.374;2024-02-04T05:35:30;8.60;99.90
12438;DHT22;6283;51.330;12.374;2024-02-04T05:37:55;8.60;99.90
12438;DHT22;6283;51.330;12.374;2024-02-04T05:40:21;8.80;99.90
12438;DHT22;6283;51.330;12.374;2024-02-04T05:42:47;8.80;99.90
12438;DHT22;6283;51.330;12.374;2024-02-04T05:45:12;8.80;99.90
12438;DHT22;6283;51.330;12.374;2024-02-04T05:47:38;8.60;99.90
12438;DHT22;6283;51.330;12.374;2024-02-04T05:50:04;8.70;99.90
12438;DHT22;6283;51.330;12.374;2024-02-04T05:52:30;8.80;99.90
12438;DHT22;6283;51.330;12.374;2024-02-04T05:54:55;8.50;99.90
12438;DHT22;6283;51.330;12.374;2024-02-04T05:57:21;8.70;99.90
12438;DHT22;6283;51.330;12.374;2024-02-04T05:59:47;8.70;99.90
12438;DHT22;6283;51.330;12.374;2024-02-04T06:02:14;8.60;99.90
12438;DHT22;6283;51.330;12.374;2024-02-04T06:04:39;9.00;99.90
12438;DHT22;6283;51.330;12.374;2024-02-04T06:07:05;8.80;99.90
12438;DHT22;6283;51.330;12.374;2024-02-04T06:09:33;8.80;99.90
12438;DHT22;6283;51.330;12.374;2024-02-04T06:11:59;9.00;99.90
12438;DHT22;6283;51.330;12.374;2024-02-04T06:14:24;9.10;99.90
12438;DHT22;6283;51.330;12.374;2024-02-04T06:16:50;9.00;99.90
12438;DHT22;6283;51.330;12.374;2024-02-04T06:19:15;8.80;99.90
12438;DHT22;6283;51.330;12.374;2024-02-04T06:21:41;9.10;99.90
12438;DHT22;6283;51.330;12.374;2024-02-04T06:24:06;9.10;99.90
12438;DHT22;6283;51.330;12.374;2024-02-04T06:26:32;9.00;99.90
12438;DHT22;6283;51.330;12.374;2024-02-04T06:28:58;8.80;99.90
12438;DHT22;6283;51.330;12.374;2024-02-04T06:31:23;8.90;99.90
12438;DHT22;6283;51.330;12.374;2024-02-04T06:33:49;9.10;99.90
12438;DHT22;6283;51.330;12.374;2024-02-04T06:36:15;9.00;99.90
12438;DHT22;6283;51.330;12.374;2024-02-04T06:38:41;9.20;99.90
12438;DHT22;6283;51.330;12.374;2024-02-04T06:41:06;8.90;99.90
12438;DHT22;6283;51.330;12.374;2024-02-04T06:43:32;9.20;99.90
12438;DHT22;6283;51.330;12.374;2024-02-04T06:45:57;9.10;99.90
12438;DHT22;6283;51.330;12.374;2024-02-04T06:48:23;9.20;99.90
12438;DHT22;6283;51.330;12.374;2024-02-04T06:50:49;9.10;99.90
12438;DHT22;6283;51.330;12.374;2024-02-04T06:53:14;9.40;99.90
12438;DHT22;6283;51.330;12.374;2024-02-04T06:55:40;9.40;99.90
12438;DHT22;6283;51.330;12.374;2024-02-04T06:58:06;9.30;99.90
12438;DHT22;6283;51.330;12.374;2024-02-04T07:00:32;9.50;99.90
12438;DHT22;6283;51.330;12.374;2024-02-04T07:02:57;9.50;99.90
12438;DHT22;6283;51.330;12.374;2024-02-04T07:05:23;9.20;99.90
12438;DHT22;6283;51.330;12.374;2024-02-04T07:07:52;9.40;99.90
12438;DHT22;6283;51.330;12.374;2024-02-04T07:10:17;9.40;99.90
12438;DHT22;6283;51.330;12.374;2024-02-04T07:12:44;9.40;99.90
12438;DHT22;6283;51.330;12.374;2024-02-04T07:15:10;9.30;99.90
12438;DHT22;6283;51.330;12.374;2024-02-04T07:17:35;9.40;99.90
12438;DHT22;6283;51.330;12.374;2024-02-04T07:20:02;9.40;99.90
12438;DHT22;6283;51.330;12.374;2024-02-04T07:22:28;9.30;99.90
12438;DHT22;6283;51.330;12.374;2024-02-04T07:24:54;9.50;99.90
12438;DHT22;6283;51.330;12.374;2024-02-04T07:27:20;9.40;99.90
12438;DHT22;6283;51.330;12.374;2024-02-04T07:29:46;9.20;99.90
12438;DHT22;6283;51.330;12.374;2024-02-04T07:32:13;9.30;99.90
12438;DHT22;6283;51.330;12.374;2024-02-04T07:34:39;9.20;99.90
12438;DHT22;6283;51.330;12.374;2024-02-04T07:37:04;9.40;99.90
12438;DHT22;6283;51.330;12.374;2024-02-04T07:39:30;9.40;99.90
12438;DHT22;6283;51.330;12.374;2024-02-04T07:41:56;9.30;99.90
12438;DHT22;6283;51.330;12.374;2024-02-04T07:44:28;9.40;99.90
12438;DHT22;6283;51.330;12.374;2024-02-04T07:46:54;9.40;99.90
12438;DHT22;6283;51.330;12.374;2024-02-04T07:49:20;9.50;99.90
12438;DHT22;6283;51.330;12.374;2024-02-04T07:51:45;9.30;99.90
12438;DHT22;6283;51.330;12.374;2024-02-04T07:54:11;9.30;99.90
12438;DHT22;6283;51.330;12.374;2024-02-04T07:56:36;9.30;99.90
12438;DHT22;6283;51.330;12.374;2024-02-04T07:59:02;9.50;99.90
12438;DHT22;6283;51.330;12.374;2024-02-04T08:01:29;9.40;99.90
12438;DHT22;6283;51.330;12.374;2024-02-04T08:03:55;9.40;99.90
12438;DHT22;6283;51.330;12.374;2024-02-04T08:06:21;9.50;99.90
12438;DHT22;6283;51.330;12.374;2024-02-04T08:08:46;9.50;99.90
12438;DHT22;6283;51.330;12.374;2024-02-04T08:11:16;9.30;99.90
12438;DHT22;6283;51.330;12.374;2024-02-04T08:13:42;9.50;99.90
12438;DHT22;6283;51.330;12.374;2024-02-04T08:16:08;9.30;99.90
12438;DHT22;6283;51.330;12.374;2024-02-04T08:18:34;9.70;99.90
12438;DHT22;6283;51.330;12.374;2024-02-04T08:20:59;9.60;99.90
12438;DHT22;6283;51.330;12.374;2024-02-04T08:23:25;9.30;99.90
12438;DHT22;6283;51.330;12.374;2024-02-04T08:25:50;9.60;99.90
12438;DHT22;6283;51.330;12.374;2024-02-04T08:28:16;9.70;99.90
12438;DHT22;6283;51.330;12.374;2024-02-04T08:30:42;9.70;99.90
12438;DHT22;6283;51.330;12.374;2024-02-04T08:33:08;9.60;99.90
12438;DHT22;6283;51.330;12.374;2024-02-04T08:35:34;9.80;99.90
12438;DHT22;6283;51.330;12.374;2024-02-04T08:37:59;9.60;99.90
12438;DHT22;6283;51.330;12.374;2024-02-04T08:40:25;9.80;99.90
12438;DHT22;6283;51.330;12.374;2024-02-04T08:42:51;9.70;99.90
12438;DHT22;6283;51.330;12.374;2024-02-04T08:45:16;9.70;99.90
12438;DHT22;6283;51.330;12.374;2024-02-04T08:47:42;10.00;99.90
12438;DHT22;6283;51.330;12.374;2024-02-04T08:50:08;9.90;99.90
12438;DHT22;6283;51.330;12.374;2024-02-04T08:52:34;9.80;99.90
12438;DHT22;6283;51.330;12.374;2024-02-04T08:54:59;9.70;99.90
12438;DHT22;6283;51.330;12.374;2024-02-04T08:57:25;10.00;99.90
12438;DHT22;6283;51.330;12.374;2024-02-04T08:59:51;9.70;99.90
12438;DHT22;6283;51.330;12.374;2024-02-04T09:02:16;9.90;99.90
12438;DHT22;6283;51.330;12.374;2024-02-04T09:04:43;9.90;99.90
12438;DHT22;6283;51.330;12.374;2024-02-04T09:07:08;9.80;99.90
12438;DHT22;6283;51.330;12.374;2024-02-04T09:09:34;9.90;99.90
12438;DHT22;6283;51.330;12.374;2024-02-04T09:12:00;10.10;99.90
12438;DHT22;6283;51.330;12.374;2024-02-04T09:14:26;9.90;99.90
12438;DHT22;6283;51.330;12.374;2024-02-04T09:16:51;9.70;99.90
12438;DHT22;6283;51.330;12.374;2024-02-04T09:19:17;9.80;99.90
12438;DHT22;6283;51.330;12.374;2024-02-04T09:21:42;10.00;99.90
12438;DHT22;6283;51.330;12.374;2024-02-04T09:24:09;9.60;99.90
12438;DHT22;6283;51.330;12.374;2024-02-04T09:26:34;9.70;99.90
12438;DHT22;6283;51.330;12.374;2024-02-04T09:29:00;9.60;99.90
12438;DHT22;6283;51.330;12.374;2024-02-04T09:31:26;9.80;99.90
12438;DHT22;6283;51.330;12.374;2024-02-04T09:33:51;9.60;99.90
12438;DHT22;6283;51.330;12.374;2024-02-04T09:36:17;9.50;99.90
12438;DHT22;6283;51.330;12.374;2024-02-04T09:38:42;9.30;99.90
12438;DHT22;6283;51.330;12.374;2024-02-04T09:41:08;9.30;99.90
12438;DHT22;6283;51.330;12.374;2024-02-04T09:43:35;9.40;99.90
12438;DHT22;6283;51.330;12.374;2024-02-04T09:46:01;9.40;99.90
12438;DHT22;6283;51.330;12.374;2024-02-04T09:48:32;9.40;99.90
12438;DHT22;6283;51.330;12.374;2024-02-04T09:50:58;9.40;99.90
12438;DHT22;6283;51.330;12.374;2024-02-04T09:53:34;9.60;99.90
12438;DHT22;6283;51.330;12.374;2024-02-04T09:56:02;9.60;99.90
12438;DHT22;6283;51.330;12.374;2024-02-04T09:58:29;9.70;99.90
12438;DHT22;6283;51.330;12.374;2024-02-04T10:00:54;9.60;99.90
12438;DHT22;6283;51.330;12.374;2024-02-04T10:03:20;9.50;99.90
12438;DHT22;6283;51.330;12.374;2024-02-04T10:05:46;9.40;99.90
12438;DHT22;6283;51.330;12.374;2024-02-04T10:08:13;9.40;99.90
12438;DHT22;6283;51.330;12.374;2024-02-04T10:10:39;9.40;99.90
12438;DHT22;6283;51.330;12.374;2024-02-04T10:13:07;9.40;99.90
12438;DHT22;6283;51.330;12.374;2024-02-04T10:15:33;9.60;99.90
12438;DHT22;6283;51.330;12.374;2024-02-04T10:17:59;9.40;99.90
12438;DHT22;6283;51.330;12.374;2024-02-04T10:20:24;9.30;99.90
12438;DHT22;6283;51.330;12.374;2024-02-04T10:22:50;9.30;99.90
12438;DHT22;6283;51.330;12.374;2024-02-04T10:25:15;9.30;99.90
12438;DHT22;6283;51.330;12.374;2024-02-04T10:27:42;9.40;99.90
12438;DHT22;6283;51.330;12.374;2024-02-04T10:30:08;9.40;99.90
12438;DHT22;6283;51.330;12.374;2024-02-04T10:32:34;9.40;99.90
12438;DHT22;6283;51.330;12.374;2024-02-04T10:34:59;9.70;99.90
12438;DHT22;6283;51.330;12.374;2024-02-04T10:37:26;9.60;99.90
12438;DHT22;6283;51.330;12.374;2024-02-04T10:39:52;9.40;99.90
12438;DHT22;6283;51.330;12.374;2024-02-04T10:42:26;9.40;99.90
12438;DHT22;6283;51.330;12.374;2024-02-04T10:44:53;9.50;99.90
12438;DHT22;6283;51.330;12.374;2024-02-04T10:47:23;9.50;99.90
12438;DHT22;6283;51.330;12.374;2024-02-04T10:49:53;9.60;99.90
12438;DHT22;6283;51.330;12.374;2024-02-04T10:52:19;9.70;99.90
12438;DHT22;6283;51.330;12.374;2024-02-04T10:54:46;9.80;99.90
12438;DHT22;6283;51.330;12.374;2024-02-04T10:57:18;10.00;99.90
12438;DHT22;6283;51.330;12.374;2024-02-04T10:59:46;9.90;99.90
12438;DHT22;6283;51.330;12.374;2024-02-04T11:02:13;9.70;99.90
12438;DHT22;6283;51.330;12.374;2024-02-04T11:04:42;9.70;99.90
12438;DHT22;6283;51.330;12.374;2024-02-04T11:07:09;9.70;99.90
12438;DHT22;6283;51.330;12.374;2024-02-04T11:09:36;10.00;99.90
12438;DHT22;6283;51.330;12.374;2024-02-04T11:12:04;9.70;99.90
12438;DHT22;6283;51.330;12.374;2024-02-04T11:14:32;9.70;99.90
12438;DHT22;6283;51.330;12.374;2024-02-04T11:20:23;9.80;99.90
12438;DHT22;6283;51.330;12.374;2024-02-04T11:23:17;9.80;99.90
12438;DHT22;6283;51.330;12.374;2024-02-04T11:25:53;10.10;99.90
12438;DHT22;6283;51.330;12.374;2024-02-04T11:28:21;9.70;99.90
12438;DHT22;6283;51.330;12.374;2024-02-04T11:30:47;9.90;99.90
12438;DHT22;6283;51.330;12.374;2024-02-04T11:33:18;10.00;99.90
12438;DHT22;6283;51.330;12.374;2024-02-04T11:35:44;9.70;99.90
12438;DHT22;6283;51.330;12.374;2024-02-04T11:38:10;9.60;99.90
12438;DHT22;6283;51.330;12.374;2024-02-04T11:40:37;10.00;99.90
12438;DHT22;6283;51.330;12.374;2024-02-04T11:43:14;9.70;99.90
12438;DHT22;6283;51.330;12.374;2024-02-04T11:45:41;9.80;99.90
12438;DHT22;6283;51.330;12.374;2024-02-04T11:48:08;9.60;99.90
12438;DHT22;6283;51.330;12.374;2024-02-04T11:50:34;9.80;99.90
12438;DHT22;6283;51.330;12.374;2024-02-04T11:53:12;10.00;99.90
12438;DHT22;6283;51.330;12.374;2024-02-04T11:55:40;9.70;99.90
12438;DHT22;6283;51.330;12.374;2024-02-04T11:58:06;9.80;99.90
12438;DHT22;6283;51.330;12.374;2024-02-04T12:00:35;9.80;99.90
12438;DHT22;6283;51.330;12.374;2024-02-04T12:03:05;9.90;99.90
12438;DHT22;6283;51.330;12.374;2024-02-04T12:05:33;9.70;99.90
12438;DHT22;6283;51.330;12.374;2024-02-04T12:08:01;9.90;99.90
12438;DHT22;6283;51.330;12.374;2024-02-04T12:10:29;10.00;99.90
12438;DHT22;6283;51.330;12.374;2024-02-04T12:12:56;9.80;99.90
12438;DHT22;6283;51.330;12.374;2024-02-04T12:15:22;9.80;99.90
12438;DHT22;6283;51.330;12.374;2024-02-04T12:17:48;9.80;99.90
12438;DHT22;6283;51.330;12.374;2024-02-04T12:20:13;9.80;99.90
12438;DHT22;6283;51.330;12.374;2024-02-04T12:22:40;10.10;99.90
12438;DHT22;6283;51.330;12.374;2024-02-04T12:25:06;9.80;99.90
12438;DHT22;6283;51.330;12.374;2024-02-04T12:27:32;9.70;99.90
12438;DHT22;6283;51.330;12.374;2024-02-04T12:29:58;9.80;99.90
12438;DHT22;6283;51.330;12.374;2024-02-04T12:32:24;9.70;99.90
12438;DHT22;6283;51.330;12.374;2024-02-04T12:34:51;10.00;99.90
12438;DHT22;6283;51.330;12.374;2024-02-04T12:37:21;9.70;99.90
12438;DHT22;6283;51.330;12.374;2024-02-04T12:39:47;9.90;99.90
12438;DHT22;6283;51.330;12.374;2024-02-04T12:42:16;9.90;99.90
12438;DHT22;6283;51.330;12.374;2024-02-04T12:44:48;9.90;99.90
12438;DHT22;6283;51.330;12.374;2024-02-04T12:47:18;9.90;99.90
12438;DHT22;6283;51.330;12.374;2024-02-04T12:49:44;10.00;99.90
12438;DHT22;6283;51.330;12.374;2024-02-04T12:52:09;10.00;10.60
12438;DHT22;6283;51.330;12.374;2024-02-04T12:54:44;10.10;16.30
12438;DHT22;6283;51.330;12.374;2024-02-04T12:57:21;10.00;15.80
12438;DHT22;6283;51.330;12.374;2024-02-04T12:59:47;9.90;1.00
12438;DHT22;6283;51.330;12.374;2024-02-04T13:02:14;10.10;1.00
12438;DHT22;6283;51.330;12.374;2024-02-04T13:04:42;9.90;1.00
12438;DHT22;6283;51.330;12.374;2024-02-04T13:07:09;10.20;1.00
12438;DHT22;6283;51.330;12.374;2024-02-04T13:09:36;9.80;1.00
12438;DHT22;6283;51.330;12.374;2024-02-04T13:12:05;10.00;1.00
12438;DHT22;6283;51.330;12.374;2024-02-04T13:14:32;10.30;99.90
12438;DHT22;6283;51.330;12.374;2024-02-04T13:16:58;9.80;99.90
12438;DHT22;6283;51.330;12.374;2024-02-04T13:19:24;10.00;99.90
12438;DHT22;6283;51.330;12.374;2024-02-04T13:21:49;10.00;99.90
12438;DHT22;6283;51.330;12.374;2024-02-04T13:24:15;9.90;1.00
12438;DHT22;6283;51.330;12.374;2024-02-04T13:26:41;10.00;99.90
12438;DHT22;6283;51.330;12.374;2024-02-04T13:29:06;10.00;99.90
12438;DHT22;6283;51.330;12.374;2024-02-04T13:31:33;10.00;99.90
12438;DHT22;6283;51.330;12.374;2024-02-04T13:33:58;9.90;1.00
12438;DHT22;6283;51.330;12.374;2024-02-04T13:36:24;9.90;99.90
12438;DHT22;6283;51.330;12.374;2024-02-04T13:38:50;10.00;1.00
12438;DHT22;6283;51.330;12.374;2024-02-04T13:41:15;9.70;1.00
12438;DHT22;6283;51.330;12.374;2024-02-04T13:43:41;9.90;1.00
12438;DHT22;6283;51.330;12.374;2024-02-04T13:46:09;10.00;1.00
12438;DHT22;6283;51.330;12.374;2024-02-04T13:48:35;9.70;1.00
12438;DHT22;6283;51.330;12.374;2024-02-04T13:51:01;9.70;92.80
12438;DHT22;6283;51.330;12.374;2024-02-04T13:53:26;9.60;1.00
12438;DHT22;6283;51.330;12.374;2024-02-04T13:55:52;9.60;72.80
12438;DHT22;6283;51.330;12.374;2024-02-04T13:58:18;9.60;99.90
12438;DHT22;6283;51.330;12.374;2024-02-04T14:00:44;9.60;99.90
12438;DHT22;6283;51.330;12.374;2024-02-04T14:03:10;9.60;99.90
12438;DHT22;6283;51.330;12.374;2024-02-04T14:05:38;9.70;99.90
12438;DHT22;6283;51.330;12.374;2024-02-04T14:08:06;9.40;99.90
12438;DHT22;6283;51.330;12.374;2024-02-04T14:10:31;9.30;99.90
12438;DHT22;6283;51.330;12.374;2024-02-04T14:12:57;9.20;99.90
12438;DHT22;6283;51.330;12.374;2024-02-04T14:15:23;9.40;99.90
12438;DHT22;6283;51.330;12.374;2024-02-04T14:17:51;9.40;99.90
12438;DHT22;6283;51.330;12.374;2024-02-04T14:20:17;9.20;99.90
12438;DHT22;6283;51.330;12.374;2024-02-04T14:22:42;9.30;99.90
12438;DHT22;6283;51.330;12.374;2024-02-04T14:25:08;9.20;99.90
12438;DHT22;6283;51.330;12.374;2024-02-04T14:27:34;9.10;99.90
12438;DHT22;6283;51.330;12.374;2024-02-04T14:29:59;9.10;99.90
12438;DHT22;6283;51.330;12.374;2024-02-04T14:32:25;9.10;83.80
12438;DHT22;6283;51.330;12.374;2024-02-04T14:34:51;9.20;99.90
12438;DHT22;6283;51.330;12.374;2024-02-04T14:37:19;9.10;99.90
12438;DHT22;6283;51.330;12.374;2024-02-04T14:39:44;9.10;99.90
12438;DHT22;6283;51.330;12.374;2024-02-04T14:42:10;9.10;99.90
12438;DHT22;6283;51.330;12.374;2024-02-04T14:44:35;9.30;99.90
12438;DHT22;6283;51.330;12.374;2024-02-04T14:47:01;9.10;99.90
12438;DHT22;6283;51.330;12.374;2024-02-04T14:49:27;9.00;99.90
12438;DHT22;6283;51.330;12.374;2024-02-04T14:51:53;9.10;99.90
12438;DHT22;6283;51.330;12.374;2024-02-04T14:54:18;9.20;99.90
12438;DHT22;6283;51.330;12.374;2024-02-04T14:56:44;9.00;99.90
12438;DHT22;6283;51.330;12.374;2024-02-04T14:59:12;9.20;99.90
12438;DHT22;6283;51.330;12.374;2024-02-04T15:01:38;9.10;99.90
12438;DHT22;6283;51.330;12.374;2024-02-04T15:04:04;9.40;1.00
12438;DHT22;6283;51.330;12.374;2024-02-04T15:06:30;9.00;1.00
12438;DHT22;6283;51.330;12.374;2024-02-04T15:08:57;9.50;1.00
12438;DHT22;6283;51.330;12.374;2024-02-04T15:11:25;9.40;1.00
12438;DHT22;6283;51.330;12.374;2024-02-04T15:13:51;9.20;1.00
12438;DHT22;6283;51.330;12.374;2024-02-04T15:16:16;9.30;1.00
12438;DHT22;6283;51.330;12.374;2024-02-04T15:18:42;9.50;1.00
12438;DHT22;6283;51.330;12.374;2024-02-04T15:21:08;9.40;1.00
12438;DHT22;6283;51.330;12.374;2024-02-04T15:23:34;9.40;1.00
12438;DHT22;6283;51.330;12.374;2024-02-04T15:26:01;9.30;1.00
12438;DHT22;6283;51.330;12.374;2024-02-04T15:28:27;9.30;99.90
12438;DHT22;6283;51.330;12.374;2024-02-04T15:30:53;9.50;1.00
12438;DHT22;6283;51.330;12.374;2024-02-04T15:33:19;9.70;1.00
12438;DHT22;6283;51.330;12.374;2024-02-04T15:35:45;9.70;1.00
12438;DHT22;6283;51.330;12.374;2024-02-04T15:38:10;9.60;1.00
12438;DHT22;6283;51.330;12.374;2024-02-04T15:40:36;9.70;1.00
12438;DHT22;6283;51.330;12.374;2024-02-04T15:43:02;9.80;99.90
12438;DHT22;6283;51.330;12.374;2024-02-04T15:45:27;9.60;99.90